Time;durP1;ratioP1;P1;durP2;ratioP2;P2;SDS_P1;SDS_P2;PMS_P1;PMS_P2;Temp;Humidity;BMP_temperature;BMP_pressure;BME280_temperature;BME280_humidity;BME280_pressure;Samples;Min_cycle;Max_cycle;Signal;HPM_P1;HPM_P2
2021/03/07 00:02:25;;;;;;;15.85;6.63;;;;;;;-2.45;65.44;99835.25;4953752;28;20027;-71
2021/03/07 00:04:51;;;;;;;15.18;5.82;;;;;;;-2.59;65.74;99834.41;4968637;28;20170;-71
2021/03/07 00:07:16;;;;;;;11.27;4.80;;;;;;;-2.72;65.28;99821.09;4954367;28;20027;-71
2021/03/07 00:09:41;;;;;;;10.50;4.65;;;;;;;-2.74;66.55;99817.66;4954234;28;20792;-71
2021/03/07 00:12:07;;;;;;;12.55;4.97;;;;;;;-2.69;66.69;99823.53;4951203;28;20036;-71
2021/03/07 00:14:32;;;;;;;7.80;3.53;;;;;;;-2.72;66.71;99823.72;4949609;28;20034;-71
2021/03/07 00:16:57;;;;;;;6.75;2.92;;;;;;;-2.74;66.90;99820.31;4954261;28;20039;-71
2021/03/07 00:19:23;;;;;;;6.28;2.90;;;;;;;-2.87;66.96;99825.50;4937548;29;20040;-71
2021/03/07 00:21:48;;;;;;;6.05;2.90;;;;;;;-3.01;67.35;99823.72;4953401;28;20042;-71
2021/03/07 00:24:13;;;;;;;5.75;3.33;;;;;;;-2.99;67.41;99816.50;4953554;28;20037;-71
2021/03/07 00:26:39;;;;;;;5.53;2.70;;;;;;;-2.97;66.96;99819.06;4953028;28;20043;-71
2021/03/07 00:29:05;;;;;;;5.68;2.88;;;;;;;-2.91;66.69;99816.03;4953679;28;20386;-71
2021/03/07 00:31:30;;;;;;;6.38;3.40;;;;;;;-2.77;66.18;99823.16;4953614;28;20406;-71
2021/03/07 00:33:55;;;;;;;6.53;3.33;;;;;;;-2.81;65.89;99833.06;4945941;28;20126;-72
2021/03/07 00:36:21;;;;;;;7.85;3.15;;;;;;;-2.95;66.59;99841.00;4950046;28;20047;-72
2021/03/07 00:38:46;;;;;;;6.68;3.00;;;;;;;-3.05;66.77;99818.69;4965193;28;20039;-72
2021/03/07 00:41:11;;;;;;;4.22;2.65;;;;;;;-2.93;66.08;99834.69;4972777;28;20118;-72
2021/03/07 00:43:37;;;;;;;6.78;3.13;;;;;;;-2.93;65.48;99831.19;4952736;29;20081;-72
2021/03/07 00:46:04;;;;;;;5.30;2.88;;;;;;;-2.84;65.58;99835.06;4947728;28;20069;-72
2021/03/07 00:48:30;;;;;;;6.82;3.40;;;;;;;-2.98;65.92;99828.81;4955839;28;20063;-73
2021/03/07 00:50:55;;;;;;;6.32;3.55;;;;;;;-3.13;67.72;99829.72;4954465;28;20063;-72
2021/03/07 00:53:21;;;;;;;9.52;4.10;;;;;;;-3.31;68.80;99821.06;4946808;28;20473;-72
2021/03/07 00:55:46;;;;;;;9.30;4.50;;;;;;;-3.47;69.74;99807.91;4946461;28;20036;-72
2021/03/07 00:58:11;;;;;;;8.90;4.53;;;;;;;-3.39;69.78;99824.16;4936683;29;20122;-72
2021/03/07 01:00:36;;;;;;;8.35;4.40;;;;;;;-3.74;70.13;99807.72;4945891;29;20027;-72
2021/03/07 01:03:02;;;;;;;12.23;4.70;;;;;;;-3.82;70.48;99809.94;4959618;28;21708;-72
2021/03/07 01:05:29;;;;;;;9.95;5.00;;;;;;;-3.82;70.57;99807.31;4951931;28;20046;-73
2021/03/07 01:07:54;;;;;;;9.23;5.05;;;;;;;-3.75;70.72;99817.44;4953150;28;20425;-72
2021/03/07 01:10:25;;;;;;;9.32;4.75;;;;;;;-3.66;70.89;99815.22;4950990;28;20035;-72
2021/03/07 01:12:51;;;;;;;9.15;4.90;;;;;;;-3.67;71.19;99808.19;4948464;29;20034;-73
2021/03/07 01:15:28;;;;;;;9.95;5.22;;;;;;;-3.66;71.57;99809.91;4956324;28;20031;-73
2021/03/07 01:17:54;;;;;;;10.27;5.30;;;;;;;-3.78;71.66;99800.88;4980416;28;20030;-72
2021/03/07 01:20:20;;;;;;;11.90;5.25;;;;;;;-3.78;72.28;99807.00;4954573;29;20031;-72
2021/03/07 01:22:46;;;;;;;10.35;5.22;;;;;;;-3.90;72.30;99789.22;4946953;28;20036;-72
2021/03/07 01:25:11;;;;;;;12.88;5.78;;;;;;;-3.93;72.62;99781.47;4951387;28;20042;-72
2021/03/07 01:27:38;;;;;;;10.55;5.28;;;;;;;-4.08;73.00;99775.28;4969742;28;20038;-72
2021/03/07 01:30:08;;;;;;;11.00;5.40;;;;;;;-4.09;73.64;99780.63;4952321;28;20031;-72
2021/03/07 01:32:34;;;;;;;15.23;6.03;;;;;;;-4.15;73.70;99776.53;4945409;28;20031;-73
2021/03/07 01:34:59;;;;;;;12.05;5.60;;;;;;;-4.12;74.02;99773.72;4949414;28;20050;-73
2021/03/07 01:37:25;;;;;;;13.18;6.28;;;;;;;-4.22;73.76;99768.13;4962592;28;20085;-72
2021/03/07 01:39:50;;;;;;;12.15;6.28;;;;;;;-4.15;73.77;99767.78;4966723;28;20098;-72
2021/03/07 01:42:15;;;;;;;11.73;5.53;;;;;;;-4.08;73.83;99761.22;4949343;28;20031;-72
2021/03/07 01:44:41;;;;;;;11.73;6.30;;;;;;;-4.16;73.94;99747.59;4963386;28;20111;-73
2021/03/07 01:47:06;;;;;;;15.18;6.25;;;;;;;-4.22;74.17;99739.06;4956720;28;20027;-73
2021/03/07 01:49:32;;;;;;;12.38;6.55;;;;;;;-4.04;73.63;99752.16;4971570;28;20452;-71
2021/03/07 01:51:57;;;;;;;13.95;6.20;;;;;;;-3.91;73.79;99747.00;4955855;28;20654;-71
2021/03/07 01:54:23;;;;;;;12.77;5.10;;;;;;;-4.09;73.33;99733.06;4989160;28;20030;-71
2021/03/07 01:56:52;;;;;;;10.55;5.00;;;;;;;-4.02;73.32;99723.84;4952314;28;20469;-71
2021/03/07 01:59:20;;;;;;;9.50;5.25;;;;;;;-3.93;72.89;99733.03;4953572;28;20449;-71
2021/03/07 02:01:50;;;;;;;8.00;4.13;;;;;;;-3.97;73.28;99727.91;4941860;28;20546;-71
2021/03/07 02:04:15;;;;;;;11.75;5.88;;;;;;;-4.02;73.77;99716.75;4956531;28;20039;-71
2021/03/07 02:06:41;;;;;;;13.02;6.03;;;;;;;-3.99;73.88;99715.72;4952793;28;20047;-71
2021/03/07 02:09:07;;;;;;;10.88;5.40;;;;;;;-4.24;74.15;99713.66;4952573;28;20031;-71
2021/03/07 02:11:36;;;;;;;13.48;5.97;;;;;;;-4.24;74.20;99718.94;4955357;28;20038;-71
2021/03/07 02:14:02;;;;;;;11.50;6.25;;;;;;;-4.41;74.69;99706.69;4952637;28;20379;-71
2021/03/07 02:16:28;;;;;;;13.27;6.10;;;;;;;-4.40;75.41;99692.56;4950540;28;20031;-71
2021/03/07 02:18:54;;;;;;;10.23;5.60;;;;;;;-4.45;75.82;99705.16;4952375;28;20443;-71
2021/03/07 02:21:30;;;;;;;12.88;6.63;;;;;;;-4.52;76.04;99701.16;4962121;28;20401;-71
2021/03/07 02:24:03;;;;;;;12.25;6.25;;;;;;;-4.52;76.17;99714.38;4969320;28;20046;-71
2021/03/07 02:26:30;;;;;;;12.13;6.60;;;;;;;-4.51;76.50;99705.50;4950344;28;20027;-71
2021/03/07 02:28:55;;;;;;;12.88;5.80;;;;;;;-4.59;76.22;99686.59;4965735;28;20027;-71
2021/03/07 02:31:25;;;;;;;11.02;5.47;;;;;;;-4.78;76.48;99690.25;4964279;28;20096;-71
2021/03/07 02:33:55;;;;;;;;;;;;;;;-4.57;76.26;99695.28;4955797;28;20031;-71
2021/03/07 02:36:29;;;;;;;10.32;5.53;;;;;;;-4.72;76.08;99705.75;4964725;28;19917;-71
2021/03/07 02:38:56;;;;;;;11.30;6.18;;;;;;;-4.79;76.91;99688.56;4968843;28;20102;-71
2021/03/07 02:41:22;;;;;;;16.67;6.15;;;;;;;-4.77;77.22;99689.31;4959279;28;20042;-71
2021/03/07 02:43:52;;;;;;;14.10;6.05;;;;;;;-4.71;76.63;99667.88;4952937;28;20027;-71
2021/03/07 02:46:19;;;;;;;12.50;5.50;;;;;;;-4.53;75.79;99679.19;4943190;28;20042;-71
2021/03/07 02:48:47;;;;;;;10.23;5.22;;;;;;;-4.36;75.50;99672.09;4949064;28;20118;-71
2021/03/07 02:51:13;;;;;;;9.93;5.43;;;;;;;-4.25;74.89;99670.53;4963605;28;20033;-71
2021/03/07 02:53:40;;;;;;;9.93;5.07;;;;;;;-4.26;74.98;99673.28;4963549;28;20375;-70
2021/03/07 02:56:10;;;;;;;14.63;5.95;;;;;;;-4.56;74.72;99657.38;4951871;28;20027;-71
2021/03/07 02:58:39;;;;;;;9.82;4.55;;;;;;;-4.59;75.38;99671.59;4949900;28;20122;-71
2021/03/07 03:01:07;;;;;;;10.00;5.13;;;;;;;-4.74;76.07;99670.69;4952725;28;20027;-71
2021/03/07 03:03:36;;;;;;;9.02;5.03;;;;;;;-5.01;76.73;99656.34;4947815;28;20046;-71
2021/03/07 03:06:04;;;;;;;9.98;5.60;;;;;;;-5.23;77.44;99664.59;4952340;28;20051;-71
2021/03/07 03:08:31;;;;;;;12.90;5.50;;;;;;;-5.31;78.04;99657.09;4950457;28;20038;-71
2021/03/07 03:10:58;;;;;;;12.02;5.55;;;;;;;-5.31;78.54;99668.47;4954449;28;20031;-71
2021/03/07 03:13:25;;;;;;;14.90;6.10;;;;;;;-5.26;78.80;99685.88;4953516;28;20400;-71
2021/03/07 03:15:52;;;;;;;7.65;4.50;;;;;;;-5.17;77.68;99669.53;4957482;28;20039;-71
2021/03/07 03:18:18;;;;;;;7.38;4.18;;;;;;;-5.23;77.81;99667.22;4955871;29;20059;-72
2021/03/07 03:20:44;;;;;;;10.70;4.82;;;;;;;-5.19;77.75;99651.13;4957069;28;20031;-73
2021/03/07 03:23:09;;;;;;;9.48;5.32;;;;;;;-5.25;77.67;99655.91;4971502;28;20113;-73
2021/03/07 03:25:35;;;;;;;8.88;5.47;;;;;;;-5.21;77.54;99660.06;4956550;28;20066;-73
2021/03/07 03:28:00;;;;;;;13.00;5.15;;;;;;;-5.04;76.53;99653.88;4956636;28;20031;-73
2021/03/07 03:30:27;;;;;;;9.68;5.25;;;;;;;-5.19;76.44;99639.72;4982793;28;20031;-73
2021/03/07 03:32:52;;;;;;;9.50;4.57;;;;;;;-5.15;76.48;99647.41;4953767;28;20605;-73
2021/03/07 03:35:19;;;;;;;14.70;5.25;;;;;;;-5.18;76.77;99637.03;4953287;28;20106;-70
2021/03/07 03:37:46;;;;;;;9.30;4.60;;;;;;;-5.01;76.46;99637.88;4956836;28;20055;-70
2021/03/07 03:40:32;;;;;;;10.65;4.70;;;;;;;-5.24;76.81;99640.00;4956855;28;20077;-72
2021/03/07 03:43:02;;;;;;;12.10;5.18;;;;;;;-5.39;77.48;99640.81;4954654;29;20039;-70
2021/03/07 03:45:28;;;;;;;10.75;5.63;;;;;;;-5.47;77.98;99643.88;4954991;28;20736;-71
2021/03/07 03:48:00;;;;;;;13.20;5.57;;;;;;;-5.66;78.14;99628.16;4956150;28;20031;-71
2021/03/07 03:50:28;;;;;;;8.77;5.00;;;;;;;-5.61;78.41;99639.31;4955043;28;20035;-70
2021/03/07 03:52:55;;;;;;;11.30;5.32;;;;;;;-5.68;78.44;99639.75;4956662;29;20073;-71
2021/03/07 03:55:26;;;;;;;11.35;5.28;;;;;;;-5.64;78.54;99636.84;4944884;28;20478;-70
2021/03/07 03:57:55;;;;;;;8.80;4.47;;;;;;;-5.71;78.85;99638.13;4942263;28;20158;-71
2021/03/07 04:00:24;;;;;;;9.48;5.22;;;;;;;-5.62;78.45;99637.63;4949073;29;20019;-70
2021/03/07 04:02:51;;;;;;;;;;;;;;;-5.66;77.73;99640.47;4954711;28;20486;-73
2021/03/07 04:05:18;;;;;;;10.27;5.05;;;;;;;-5.78;78.29;99631.44;4951915;28;19961;-70
2021/03/07 04:07:46;;;;;;;10.52;4.93;;;;;;;-5.80;78.53;99649.13;4955037;29;20047;-71
2021/03/07 04:10:15;;;;;;;10.70;5.60;;;;;;;-5.89;79.26;99634.66;4949266;29;20375;-70
2021/03/07 04:12:41;;;;;;;9.65;4.68;;;;;;;-5.76;78.82;99640.97;4961135;28;20397;-71
2021/03/07 04:15:08;;;;;;;10.63;5.23;;;;;;;-5.61;78.17;99636.66;4955282;28;20027;-70
2021/03/07 04:17:35;;;;;;;10.27;5.45;;;;;;;-5.48;78.41;99628.97;4954077;29;20987;-70
2021/03/07 04:20:02;;;;;;;11.27;5.00;;;;;;;-5.56;77.48;99637.28;4955365;28;20023;-70
2021/03/07 04:22:28;;;;;;;8.10;4.90;;;;;;;-5.58;78.30;99631.25;4955151;28;20391;-72
2021/03/07 04:24:53;;;;;;;9.63;5.03;;;;;;;-5.78;78.96;99627.03;4959005;28;20030;-73
2021/03/07 04:27:22;;;;;;;11.57;5.60;;;;;;;-5.83;78.50;99633.47;4967836;28;20026;-71
2021/03/07 04:29:49;;;;;;;10.90;4.45;;;;;;;-5.94;78.90;99620.88;4955886;29;20023;-72
2021/03/07 04:32:15;;;;;;;11.83;5.03;;;;;;;-5.91;78.21;99609.31;4953663;29;20062;-72
2021/03/07 04:34:41;;;;;;;9.87;5.13;;;;;;;-5.94;78.29;99612.97;4946401;28;20747;-72
2021/03/07 04:37:07;;;;;;;9.17;4.57;;;;;;;-6.01;78.76;99612.44;4948943;29;20414;-73
2021/03/07 04:39:33;;;;;;;11.97;5.40;;;;;;;-6.04;79.83;99607.31;4954425;28;20027;-72
2021/03/07 04:41:59;;;;;;;11.10;5.23;;;;;;;-6.08;79.58;99586.47;4955669;29;20034;-72
2021/03/07 04:44:25;;;;;;;13.80;6.18;;;;;;;-6.06;79.62;99596.00;4951906;28;20023;-72
2021/03/07 04:46:50;;;;;;;12.13;5.43;;;;;;;-6.02;79.52;99610.75;4955338;28;20031;-72
2021/03/07 04:49:15;;;;;;;7.30;4.23;;;;;;;-6.14;80.13;99598.19;4948221;29;20490;-72
2021/03/07 04:51:41;;;;;;;12.87;5.90;;;;;;;-6.15;80.83;99591.22;4936367;29;20035;-72
2021/03/07 04:54:06;;;;;;;10.57;5.50;;;;;;;-6.24;80.12;99589.91;4951765;29;20024;-72
2021/03/07 04:56:32;;;;;;;11.87;6.00;;;;;;;-6.21;80.40;99610.84;4950390;28;20045;-73
2021/03/07 04:58:58;;;;;;;7.97;4.70;;;;;;;-6.22;80.08;99605.63;4955809;29;20027;-73
2021/03/07 05:01:24;;;;;;;9.27;4.33;;;;;;;-6.15;80.16;99596.50;4954029;28;20165;-72
2021/03/07 05:03:52;;;;;;;9.23;5.03;;;;;;;-6.16;80.23;99589.50;4957951;28;20027;-72
2021/03/07 05:06:17;;;;;;;10.63;4.63;;;;;;;-6.17;79.46;99601.84;4949961;28;20050;-73
2021/03/07 05:08:42;;;;;;;9.50;4.30;;;;;;;-6.20;79.31;99602.00;4952723;28;20050;-73
2021/03/07 05:11:08;;;;;;;9.20;3.67;;;;;;;-6.18;79.38;99599.28;4954670;28;20026;-73
2021/03/07 05:13:33;;;;;;;7.60;4.27;;;;;;;-6.31;80.02;99600.81;4977923;28;20037;-73
2021/03/07 05:15:58;;;;;;;7.83;3.70;;;;;;;-6.43;80.30;99587.34;4951296;28;20046;-73
2021/03/07 05:18:24;;;;;;;9.10;4.27;;;;;;;-6.47;80.85;99601.63;4954543;28;20031;-73
2021/03/07 05:20:49;;;;;;;9.77;4.23;;;;;;;-6.48;80.73;99599.03;4951725;29;20434;-73
2021/03/07 05:23:15;;;;;;;7.00;4.30;;;;;;;-6.43;80.43;99584.72;4957468;28;20130;-73
2021/03/07 05:25:40;;;;;;;10.50;5.17;;;;;;;-6.27;79.80;99591.84;4957220;28;20050;-73
2021/03/07 05:28:06;;;;;;;10.40;5.43;;;;;;;-6.14;80.02;99602.63;4951816;28;20027;-73
2021/03/07 05:30:31;;;;;;;12.60;5.50;;;;;;;-6.03;79.82;99601.13;4953723;28;20075;-73
2021/03/07 05:32:57;;;;;;;10.30;5.40;;;;;;;-5.97;79.85;99590.28;4953639;28;20023;-73
2021/03/07 05:35:23;;;;;;;9.43;4.73;;;;;;;-6.02;79.61;99600.22;4954969;28;20039;-73
2021/03/07 05:37:49;;;;;;;9.30;5.03;;;;;;;-6.04;79.36;99590.69;4935662;29;20035;-73
2021/03/07 05:40:15;;;;;;;10.40;5.20;;;;;;;-6.11;79.79;99586.66;4953558;28;20030;-73
2021/03/07 05:42:40;;;;;;;9.73;4.67;;;;;;;-6.24;79.10;99568.00;4954741;28;20040;-73
2021/03/07 05:45:06;;;;;;;12.60;5.10;;;;;;;-6.11;79.94;99576.13;4947474;28;20035;-73
2021/03/07 05:47:32;;;;;;;12.17;4.57;;;;;;;-6.08;79.37;99582.06;4952131;28;20035;-73
2021/03/07 05:49:57;;;;;;;9.67;5.23;;;;;;;-6.02;79.11;99571.22;4954468;28;20035;-73
2021/03/07 05:52:24;;;;;;;11.20;4.93;;;;;;;-5.86;78.34;99559.84;4952680;29;20035;-72
2021/03/07 05:54:53;;;;;;;8.13;4.10;;;;;;;-5.88;78.20;99561.72;4968382;28;20054;-73
2021/03/07 05:57:21;;;;;;;10.30;5.00;;;;;;;-5.89;77.02;99567.94;4950019;28;20027;-73
2021/03/07 05:59:48;;;;;;;9.17;4.50;;;;;;;-5.91;78.06;99573.25;4941204;29;20039;-73
2021/03/07 06:02:14;;;;;;;11.80;5.17;;;;;;;-5.92;78.27;99575.97;4950804;29;20034;-73
2021/03/07 06:04:43;;;;;;;9.57;4.93;;;;;;;-5.91;78.32;99561.88;4951856;28;20500;-73
2021/03/07 06:07:09;;;;;;;9.87;4.40;;;;;;;-5.80;78.14;99567.44;4954897;28;20038;-73
2021/03/07 06:09:34;;;;;;;7.87;4.07;;;;;;;-5.69;77.60;99554.50;4957943;28;20547;-73
2021/03/07 06:12:02;;;;;;;9.27;4.90;;;;;;;-5.73;76.92;99540.66;4955882;28;20070;-73
2021/03/07 06:14:33;;;;;;;12.27;5.20;;;;;;;-5.67;77.14;99557.09;4942774;29;20556;-73
2021/03/07 06:17:08;;;;;;;8.75;4.50;;;;;;;-4.95;75.65;99553.09;4940598;29;20122;-73
2021/03/07 06:19:55;;;;;;;9.97;4.20;;;;;;;-2.83;68.06;99548.13;4940642;28;20055;-73
2021/03/07 06:22:20;;;;;;;12.52;4.88;;;;;;;-1.71;64.54;99538.75;4968595;28;20392;-73
2021/03/07 06:24:46;;;;;;;8.25;4.50;;;;;;;-0.51;60.63;99538.91;4950473;28;20035;-73
2021/03/07 06:27:13;;;;;;;8.38;4.30;;;;;;;1.46;55.84;99540.25;4943631;28;20457;-71
2021/03/07 06:30:00;;;;;;;9.25;4.38;;;;;;;2.96;51.65;99534.50;4944320;29;20038;-72
2021/03/07 06:32:30;;;;;;;10.48;4.47;;;;;;;4.12;48.50;99527.47;4944360;28;20106;-71
2021/03/07 06:34:56;;;;;;;9.38;4.65;;;;;;;4.96;46.17;99530.13;4947139;28;20057;-71
2021/03/07 06:37:23;;;;;;;8.75;4.45;;;;;;;5.93;44.63;99523.19;4953612;29;20449;-72
2021/03/07 06:39:49;;;;;;;7.13;5.07;;;;;;;6.01;44.90;99525.97;4955111;28;20450;-71
2021/03/07 06:42:15;;;;;;;9.15;5.40;;;;;;;5.77;44.75;99513.16;4952234;28;20039;-74
2021/03/07 06:45:02;;;;;;;9.25;5.38;;;;;;;6.37;43.02;99520.50;4953658;28;20101;-74
2021/03/07 06:47:28;;;;;;;8.10;4.82;;;;;;;6.87;41.70;99511.69;4952418;29;20031;-74
2021/03/07 06:50:11;;;;;;;8.88;5.20;;;;;;;7.86;40.45;99512.72;4955291;28;20402;-71
2021/03/07 06:52:50;;;;;;;8.90;5.72;;;;;;;7.45;40.96;99515.38;4969054;28;20042;-73
2021/03/07 06:55:17;;;;;;;9.27;4.93;;;;;;;7.33;40.44;99514.81;4941929;28;20309;-72
2021/03/07 06:57:42;;;;;;;6.75;4.45;;;;;;;6.39;42.33;99523.84;4951512;29;20042;-73
2021/03/07 07:00:08;;;;;;;8.82;4.88;;;;;;;7.13;41.47;99516.16;4957517;28;20019;-72
2021/03/07 07:02:33;;;;;;;12.00;4.63;;;;;;;7.63;40.04;99523.31;4947028;29;20074;-72
2021/03/07 07:04:59;;;;;;;7.97;5.15;;;;;;;9.05;38.20;99524.59;4978102;28;20023;-70
2021/03/07 07:07:25;;;;;;;8.38;5.28;;;;;;;9.15;38.35;99517.13;4957723;29;20098;-73
2021/03/07 07:10:03;;;;;;;9.25;5.22;;;;;;;9.20;37.45;99522.84;4958136;28;20442;-72
2021/03/07 07:12:29;;;;;;;7.85;5.20;;;;;;;8.37;38.94;99526.81;4958016;29;20023;-73
2021/03/07 07:15:14;;;;;;;6.63;4.50;;;;;;;9.44;37.39;99514.59;4975299;28;20029;-69
2021/03/07 07:17:40;;;;;;;8.40;4.93;;;;;;;9.63;37.19;99531.34;4976272;28;20035;-73
2021/03/07 07:20:09;;;;;;;7.05;4.57;;;;;;;9.55;37.13;99526.84;4990366;28;20039;-72
2021/03/07 07:22:35;;;;;;;6.82;5.05;;;;;;;9.00;37.39;99520.56;4961596;28;20046;-72
2021/03/07 07:25:00;;;;;;;8.45;4.40;;;;;;;10.03;36.56;99505.03;4958540;28;20031;-72
2021/03/07 07:27:25;;;;;;;7.20;4.82;;;;;;;9.50;36.86;99521.13;4987980;28;20094;-72
2021/03/07 07:29:51;;;;;;;7.68;5.30;;;;;;;9.72;36.82;99521.31;4973559;28;20039;-73
2021/03/07 07:32:31;;;;;;;8.73;4.82;;;;;;;9.84;36.51;99514.47;4973117;28;20088;-74
2021/03/07 07:35:16;;;;;;;9.75;4.32;;;;;;;10.12;36.49;99501.25;4979274;28;20367;-75
2021/03/07 07:37:50;;;;;;;5.95;3.58;;;;;;;10.83;35.54;99492.72;4969389;29;20090;-74
2021/03/07 07:40:16;;;;;;;5.70;3.85;;;;;;;10.89;35.41;99495.50;4968316;29;20027;-74
2021/03/07 07:42:56;;;;;;;6.38;3.72;;;;;;;11.47;33.73;99495.56;4970330;28;20034;-73
2021/03/07 07:45:21;;;;;;;8.82;4.13;;;;;;;11.17;34.46;99498.38;4970222;28;20027;-72
2021/03/07 07:47:53;;;;;;;5.95;4.13;;;;;;;11.62;33.82;99498.22;4983955;28;20430;-72
2021/03/07 07:50:27;;;;;;;6.90;4.60;;;;;;;11.66;33.90;99494.13;4982892;28;20027;-72
2021/03/07 07:52:54;;;;;;;5.15;4.22;;;;;;;11.93;34.24;99497.09;4958497;28;20036;-72
2021/03/07 07:55:19;;;;;;;6.70;4.53;;;;;;;12.57;32.51;99496.09;4952840;29;20520;-72
2021/03/07 07:57:48;;;;;;;5.70;3.28;;;;;;;13.45;30.78;99496.34;4988272;28;20030;-73
2021/03/07 08:00:43;;;;;;;6.60;3.72;;;;;;;13.95;31.10;99491.41;4960856;28;20035;-72
2021/03/07 08:03:49;;;;;;;7.55;4.45;;;;;;;13.78;31.05;99501.81;4964995;28;20039;-70
2021/03/07 08:06:24;;;;;;;7.10;4.15;;;;;;;13.67;31.35;99497.84;4958798;28;20552;-71
2021/03/07 08:08:50;;;;;;;6.20;4.28;;;;;;;13.25;31.68;99491.63;4971033;28;20099;-71
2021/03/07 08:11:18;;;;;;;5.95;4.10;;;;;;;13.54;31.02;99492.38;4965018;28;20456;-72
2021/03/07 08:13:46;;;;;;;6.03;4.43;;;;;;;13.84;31.93;99497.47;4966133;28;20043;-71
2021/03/07 08:16:11;;;;;;;6.28;4.13;;;;;;;14.56;29.97;99493.06;4962752;28;20027;-70
2021/03/07 08:18:57;;;;;;;6.78;3.92;;;;;;;15.62;28.81;99486.38;4964287;29;20034;-71
2021/03/07 08:21:23;;;;;;;5.38;3.47;;;;;;;17.26;26.91;99476.84;4961560;28;20038;-71
2021/03/07 08:24:11;;;;;;;4.15;3.28;;;;;;;16.08;27.30;99483.31;4964451;28;20027;-74
2021/03/07 08:26:42;;;;;;;5.65;3.63;;;;;;;17.77;26.66;99482.03;4964928;28;20038;-75
2021/03/07 08:29:36;;;;;;;4.68;3.75;;;;;;;18.03;26.38;99476.19;4952138;29;20035;-75
2021/03/07 08:32:24;;;;;;;5.13;3.72;;;;;;;17.28;27.30;99460.22;4956350;28;20374;-74
2021/03/07 08:34:50;;;;;;;4.90;3.13;;;;;;;18.79;25.71;99473.59;4970208;28;20110;-73
2021/03/07 08:37:16;;;;;;;4.80;3.55;;;;;;;19.19;25.35;99457.16;4943825;28;20069;-74
2021/03/07 08:39:42;;;;;;;5.82;3.33;;;;;;;19.94;25.30;99455.28;4947561;29;20031;-73
2021/03/07 08:42:08;;;;;;;4.63;3.22;;;;;;;19.18;25.18;99452.75;4968356;28;20026;-74
2021/03/07 08:44:33;;;;;;;4.68;3.47;;;;;;;19.86;24.62;99447.47;4956696;28;20034;-71
2021/03/07 08:46:59;;;;;;;4.35;3.05;;;;;;;19.76;25.21;99444.53;4951762;29;20038;-73
2021/03/07 08:49:27;;;;;;;6.65;3.70;;;;;;;20.96;24.08;99442.25;4965265;28;20028;-73
2021/03/07 08:52:05;;;;;;;6.00;3.75;;;;;;;21.23;24.04;99429.38;4939934;29;20034;-75
2021/03/07 08:54:34;;;;;;;4.95;3.47;;;;;;;20.51;24.85;99435.00;4951679;28;20031;-77
2021/03/07 08:57:06;;;;;;;4.57;2.92;;;;;;;20.54;24.53;99437.28;4955129;29;20033;-77
2021/03/07 08:59:34;;;;;;;4.63;3.38;;;;;;;20.27;23.99;99437.94;4952029;28;20079;-74
2021/03/07 09:02:00;;;;;;;6.28;3.55;;;;;;;20.79;24.26;99432.13;4948809;29;20123;-75
2021/03/07 09:04:32;;;;;;;4.32;3.40;;;;;;;21.17;23.99;99441.41;4954597;28;20070;-79
2021/03/07 09:06:58;;;;;;;4.70;3.20;;;;;;;21.33;24.08;99438.84;4949515;28;20027;-70
2021/03/07 09:09:23;;;;;;;3.80;3.00;;;;;;;21.38;23.91;99430.69;4954742;28;20027;-74
2021/03/07 09:12:08;;;;;;;3.80;3.15;;;;;;;21.14;24.26;99422.66;4951796;28;20928;-73
2021/03/07 09:14:37;;;;;;;4.38;3.38;;;;;;;21.47;23.58;99429.09;4949022;28;20114;-73
2021/03/07 09:17:08;;;;;;;4.88;3.45;;;;;;;20.24;25.36;99421.97;4952645;28;20031;-72
2021/03/07 09:19:38;;;;;;;4.45;3.22;;;;;;;19.83;24.57;99432.31;4953020;28;20035;-73
2021/03/07 09:22:21;;;;;;;5.18;3.25;;;;;;;20.05;24.62;99424.16;4948427;28;20062;-74
2021/03/07 09:24:55;;;;;;;3.40;3.08;;;;;;;21.89;23.19;99420.94;4950164;28;20776;-74
2021/03/07 09:27:23;;;;;;;4.25;3.03;;;;;;;22.35;23.33;99403.13;4951984;28;20074;-75
2021/03/07 09:30:10;;;;;;;4.35;3.60;;;;;;;21.18;23.37;99393.53;4949835;28;20027;-72
2021/03/07 09:32:42;;;;;;;4.93;3.28;;;;;;;21.12;24.28;99400.06;4953879;28;20027;-73
2021/03/07 09:35:34;;;;;;;5.35;3.42;;;;;;;19.59;25.38;99400.53;4945319;28;20035;-74
2021/03/07 09:38:06;;;;;;;5.82;3.60;;;;;;;19.65;25.32;99396.84;4945648;28;20027;-73
2021/03/07 09:40:37;;;;;;;4.97;3.70;;;;;;;20.54;24.96;99385.91;4952733;28;20534;-73
2021/03/07 09:43:06;;;;;;;5.25;3.83;;;;;;;19.99;25.56;99394.09;4950263;28;20027;-74
2021/03/07 09:45:32;;;;;;;;;;;;;;;21.10;24.29;99402.25;4966284;28;20031;-71
2021/03/07 09:47:58;;;;;;;7.40;3.88;;;;;;;19.23;26.11;99383.44;4951415;28;20404;-71
2021/03/07 09:50:25;;;;;;;5.07;4.03;;;;;;;21.16;24.29;99387.44;4949369;28;20035;-71
2021/03/07 09:52:51;;;;;;;5.93;5.32;;;;;;;20.19;25.17;99388.09;4953610;28;20074;-71
2021/03/07 09:55:23;;;;;;;6.05;4.65;;;;;;;21.08;23.92;99373.34;4943522;28;20038;-71
2021/03/07 09:57:59;;;;;;;6.68;5.07;;;;;;;21.55;23.77;99378.25;4968516;28;20031;-71
2021/03/07 10:00:25;;;;;;;7.30;4.93;;;;;;;20.76;24.49;99377.63;4946400;28;20105;-71
2021/03/07 10:02:50;;;;;;;8.60;5.68;;;;;;;19.59;25.00;99365.69;4948272;28;20489;-73
2021/03/07 10:05:15;;;;;;;6.95;5.50;;;;;;;21.32;23.45;99362.84;4960605;28;20031;-72
2021/03/07 10:07:41;;;;;;;6.45;5.45;;;;;;;20.85;24.50;99363.44;4955583;28;20031;-71
2021/03/07 10:10:15;;;;;;;7.57;5.72;;;;;;;19.36;25.42;99366.69;4952323;28;20041;-73
2021/03/07 10:12:48;;;;;;;7.45;5.50;;;;;;;18.64;27.00;99358.94;4952506;28;20027;-75
2021/03/07 10:15:28;;;;;;;8.60;6.10;;;;;;;20.33;24.78;99354.53;4954200;28;20030;-75
2021/03/07 10:17:56;;;;;;;8.10;5.88;;;;;;;20.38;24.95;99356.47;4963891;28;20073;-75
2021/03/07 10:20:22;;;;;;;6.73;6.03;;;;;;;20.35;25.81;99363.31;4967525;28;20023;-79
2021/03/07 10:22:48;;;;;;;6.57;5.88;;;;;;;20.36;24.68;99354.00;4955561;28;20035;-78
2021/03/07 10:25:37;;;;;;;7.50;6.22;;;;;;;20.71;25.63;99358.31;4954638;28;20038;-78
2021/03/07 10:28:04;;;;;;;6.95;5.90;;;;;;;21.57;23.98;99354.88;4947132;28;20031;-74
2021/03/07 10:30:40;;;;;;;6.60;5.60;;;;;;;21.02;24.60;99350.44;4962145;28;20046;-74
2021/03/07 10:33:15;;;;;;;6.53;5.78;;;;;;;15.18;31.18;99362.69;4947876;28;20057;-74
2021/03/07 10:36:07;;;;;;;6.15;5.10;;;;;;;17.24;29.41;99363.31;4953124;28;20041;-74
2021/03/07 10:38:43;;;;;;;6.63;5.15;;;;;;;17.56;28.73;99361.13;4953803;28;20079;-74
2021/03/07 10:41:32;;;;;;;7.22;5.55;;;;;;;17.46;28.98;99339.78;4949541;28;20242;-74
2021/03/07 10:44:00;;;;;;;8.10;5.75;;;;;;;17.01;29.16;99356.66;4948178;28;20370;-74
2021/03/07 10:46:30;;;;;;;7.78;5.97;;;;;;;16.15;30.29;99360.44;4960751;28;20031;-74
2021/03/07 10:48:58;;;;;;;8.10;6.00;;;;;;;14.72;32.17;99358.31;4945064;28;20031;-73
2021/03/07 10:51:24;;;;;;;7.75;6.45;;;;;;;14.01;33.39;99346.38;4958618;28;20099;-73
2021/03/07 10:53:51;;;;;;;7.53;6.15;;;;;;;14.35;32.97;99350.66;4947723;28;20429;-73
2021/03/07 10:56:16;;;;;;;10.45;6.60;;;;;;;14.65;33.25;99351.00;4950068;28;20027;-73
2021/03/07 10:58:41;;;;;;;6.65;5.40;;;;;;;15.82;31.81;99344.38;4950721;28;20106;-73
2021/03/07 11:01:06;;;;;;;7.32;5.53;;;;;;;16.19;31.31;99342.50;4954680;28;20019;-75
2021/03/07 11:03:32;;;;;;;8.88;5.78;;;;;;;16.37;30.89;99348.00;4953969;28;20597;-74
2021/03/07 11:05:58;;;;;;;6.95;6.18;;;;;;;15.11;33.44;99343.63;4951957;28;20031;-73
2021/03/07 11:08:23;;;;;;;8.65;5.72;;;;;;;16.17;32.17;99339.19;4958223;28;20036;-72
2021/03/07 11:10:48;;;;;;;10.20;6.22;;;;;;;15.15;33.38;99346.78;4952354;28;20055;-72
2021/03/07 11:13:13;;;;;;;7.38;5.55;;;;;;;14.77;32.92;99350.31;4952030;28;20027;-73
2021/03/07 11:15:39;;;;;;;6.88;5.53;;;;;;;14.21;33.64;99336.28;4950969;28;20134;-72
2021/03/07 11:18:05;;;;;;;7.28;5.88;;;;;;;13.30;34.52;99334.28;4953087;28;20067;-72
2021/03/07 11:20:31;;;;;;;11.07;6.00;;;;;;;13.54;34.92;99338.25;4954450;28;20050;-72
2021/03/07 11:22:56;;;;;;;6.97;5.30;;;;;;;14.12;34.92;99339.44;4956146;28;20028;-72
2021/03/07 11:25:21;;;;;;;8.32;5.25;;;;;;;15.04;33.89;99334.69;4957105;28;20043;-72
2021/03/07 11:27:47;;;;;;;7.22;5.60;;;;;;;15.03;33.26;99336.56;4951740;28;20126;-72
2021/03/07 11:30:13;;;;;;;7.82;5.47;;;;;;;14.03;34.44;99325.22;4956569;28;20118;-72
2021/03/07 11:32:38;;;;;;;6.80;5.22;;;;;;;15.24;34.21;99321.72;4970895;28;20090;-72
2021/03/07 11:35:04;;;;;;;6.90;5.55;;;;;;;15.61;33.53;99321.84;4954972;28;20745;-72
2021/03/07 11:37:29;;;;;;;7.57;5.50;;;;;;;16.49;31.82;99315.28;4954604;28;20103;-72
2021/03/07 11:39:54;;;;;;;10.07;5.93;;;;;;;17.09;30.66;99309.88;4961463;28;20036;-72